Ewtrford, Pennsylvania
Current Conditions -  °F | °C
As of 10:53 AM on Saturday 25 Oct 2014 (Local Time) from KAOO Reporting Station
Broken Clouds Broken Clouds  
Wind Chill: 59°   Ceiling: 3900
Heat Index: 59°   Visibility: 10mi
Dew Point: 43°   Wind: 9mph
Humidity: 55%   Direction: 250°WSW
Pressure: 29.91"   Gusts: NA
Location:  40.3617°N, 77.6745°W
Report Text: KAOO 251453Z AUTO 25008KT 10SM BKN039 15/06 A2991 RMK AO2 SLP129 T01500061 58015
Loading
Personal Weather Stations






























Interactive Weather Map
Tropical Storm Tracking
New forecast layout! Learn more

10-Day Weather Forecast

Advertisements
Track Severe Weather on mobile